Procious, West Virginia
Current Conditions -  °F | °C
As of 11:54 AM on Wednesday 26 Nov 2014 (Local Time) from KCRW Reporting Station
Light Snow Light Snow  
Wind Chill: 33°   Ceiling: 200
Heat Index: 33°   Visibility: 0.75mi
Dew Point: 32°   Wind: 0mph
Humidity: 96%   Direction: NA
Pressure: 30.04"   Gusts: NA
Location:  38.5°N, 81.21°W
Report Text: KCRW 261654Z 00000KT 3/4SM -SN BR OVC002 01/00 A3004 RMK AO2 SLP179 P0002 T00060000 RVRNO
Loading
Personal Weather Stations






























Interactive Weather Map New forecast layout! Learn more

10-Day Weather Forecast

Advertisements
Track Severe Weather on mobile